EHBK Airport Information

Runway Information
Runway 03 Length 8202 ft width 148 ft
Elevation 365 ft Threshold 820 ft Heading 33
Runway 21 Length 8202 ft Width 148 ft
Elevation 370 ft Threshold 820 ft Heading 213
Airport Frequencies
Type APP Name BEEK APP Frequency 120.2 MHZ
Type ATIS Name ATIS Frequency 124.575 MHZ
Type GND Name BEEK GND Frequency 121.825 MHZ
Type TWR Name BEEK TWR Frequency 119.475 MHZ
Airport Navaids
Type VOR-DME Name Maastricht Frequency 108600 KHZ
Type NDB Name Maastricht Frequency 373 KHZ
Airport Weather Information & NOTAM
ADDS - METARS form results

(2152 UTC 24 May 2019)
Data provider http://aviationweather.gov/metar/data/
 
METAR text: EHBK 242125Z AUTO VRB02KT 9999 NSC 13/04 Q1016
Conditions at: EHBK (ZUID-LIMBURG/BEE, NL) observed 2125 UTC 24 May 2019
Temperature: 13.0°C (55°F)
Dewpoint: 4.0°C (39°F) [RH = 54%]
Pressure (altimeter): 30.00 inches Hg (1016.0 mb)
Winds: variable direction winds at 2 MPH (2 knots; 1.0 m/s)
Visibility: 6 or more miles (10+ km)
Ceiling: at least 12,000 feet AGL
Clouds: sky clear below 12,000 feet AGL
Weather: no significant weather observed at this time

METAR text: EHBK 242055Z AUTO 32006KT 290V360 9999 NSC 14/04 Q1016
Conditions at: EHBK (ZUID-LIMBURG/BEE, NL) observed 2055 UTC 24 May 2019
Temperature: 14.0°C (57°F)
Dewpoint: 4.0°C (39°F) [RH = 51%]
Pressure (altimeter): 30.00 inches Hg (1016.0 mb)
Winds: from the NW (320 degrees) at 7 MPH (6 knots; 3.1 m/s)
Visibility: 6 or more miles (10+ km)
Ceiling: at least 12,000 feet AGL
Clouds: sky clear below 12,000 feet AGL
Weather: no significant weather observed at this time

Forecast for: EHBK (ZUID-LIMBURG/BEE, NL)
Text: TAF EHBK 241657Z 2418/2524 32007KT CAVOK
Forecast period: 1800 UTC 24 May 2019 to 0000 UTC 26 May 2019
Forecast type: FROM: standard forecast or significant change
Winds: from the NW (320 degrees) at 8 MPH (7 knots; 3.6 m/s)
Visibility: 6 or more miles 10+ km)
Ceiling: unknown
Clouds: missing
Weather: NSW  (no significant weather)